sensor_id;sensor_type;location;lat;lon;timestamp;pressure;altitude;pressure_sealevel;temperature
20103;BMP180;10210;52.284;9.892;2023-10-09T00:02:12;100970.00;;;19.00
20103;BMP180;10210;52.284;9.892;2023-10-09T00:04:47;100966.00;;;19.00
20103;BMP180;10210;52.284;9.892;2023-10-09T00:07:13;100968.00;;;19.00
20103;BMP180;10210;52.284;9.892;2023-10-09T00:09:42;100967.00;;;19.00
20103;BMP180;10210;52.284;9.892;2023-10-09T00:12:20;100957.00;;;19.00
20103;BMP180;10210;52.284;9.892;2023-10-09T00:14:49;100953.00;;;19.00
20103;BMP180;10210;52.284;9.892;2023-10-09T00:17:21;100945.00;;;19.00
20103;BMP180;10210;52.284;9.892;2023-10-09T00:19:50;100933.00;;;18.90
20103;BMP180;10210;52.284;9.892;2023-10-09T00:22:18;100916.00;;;18.90
20103;BMP180;10210;52.284;9.892;2023-10-09T00:24:56;100912.00;;;18.90
20103;BMP180;10210;52.284;9.892;2023-10-09T00:27:42;100913.00;;;18.90
20103;BMP180;10210;52.284;9.892;2023-10-09T00:30:14;100912.00;;;18.90
20103;BMP180;10210;52.284;9.892;2023-10-09T00:32:45;100909.00;;;18.90
20103;BMP180;10210;52.284;9.892;2023-10-09T00:35:21;100889.00;;;18.90
20103;BMP180;10210;52.284;9.892;2023-10-09T00:38:23;100881.00;;;18.90
20103;BMP180;10210;52.284;9.892;2023-10-09T00:40:52;100875.00;;;18.90
20103;BMP180;10210;52.284;9.892;2023-10-09T00:43:27;100891.00;;;18.90
20103;BMP180;10210;52.284;9.892;2023-10-09T00:45:58;100887.00;;;18.90
20103;BMP180;10210;52.284;9.892;2023-10-09T00:48:42;100863.00;;;18.80
20103;BMP180;10210;52.284;9.892;2023-10-09T00:51:12;100870.00;;;18.80
20103;BMP180;10210;52.284;9.892;2023-10-09T00:53:53;100860.00;;;18.80
20103;BMP180;10210;52.284;9.892;2023-10-09T00:56:22;100845.00;;;18.80
20103;BMP180;10210;52.284;9.892;2023-10-09T00:58:52;100850.00;;;18.80
20103;BMP180;10210;52.284;9.892;2023-10-09T01:01:22;100839.00;;;18.80
20103;BMP180;10210;52.284;9.892;2023-10-09T01:03:52;100834.00;;;18.80
20103;BMP180;10210;52.284;9.892;2023-10-09T01:06:19;100829.00;;;18.80
20103;BMP180;10210;52.284;9.892;2023-10-09T01:08:47;100825.00;;;18.80
20103;BMP180;10210;52.284;9.892;2023-10-09T01:11:34;100848.00;;;18.80
20103;BMP180;10210;52.284;9.892;2023-10-09T01:14:00;100853.00;;;18.80
20103;BMP180;10210;52.284;9.892;2023-10-09T01:16:39;100853.00;;;18.80
20103;BMP180;10210;52.284;9.892;2023-10-09T01:19:09;100868.00;;;18.80
20103;BMP180;10210;52.284;9.892;2023-10-09T01:21:54;100854.00;;;18.90
20103;BMP180;10210;52.284;9.892;2023-10-09T01:24:20;100859.00;;;18.90
20103;BMP180;10210;52.284;9.892;2023-10-09T01:26:54;100850.00;;;18.90
20103;BMP180;10210;52.284;9.892;2023-10-09T01:29:23;100835.00;;;18.90
20103;BMP180;10210;52.284;9.892;2023-10-09T01:31:55;100844.00;;;18.90
20103;BMP180;10210;52.284;9.892;2023-10-09T01:34:24;100862.00;;;18.90
20103;BMP180;10210;52.284;9.892;2023-10-09T01:37:10;100856.00;;;18.90
20103;BMP180;10210;52.284;9.892;2023-10-09T01:39:49;100850.00;;;19.00
20103;BMP180;10210;52.284;9.892;2023-10-09T01:42:19;100851.00;;;19.00
20103;BMP180;10210;52.284;9.892;2023-10-09T01:45:00;100854.00;;;19.00
20103;BMP180;10210;52.284;9.892;2023-10-09T01:47:45;100844.00;;;19.00
20103;BMP180;10210;52.284;9.892;2023-10-09T01:50:17;100837.00;;;19.00
20103;BMP180;10210;52.284;9.892;2023-10-09T01:52:52;100829.00;;;19.00
20103;BMP180;10210;52.284;9.892;2023-10-09T01:55:19;100806.00;;;19.00
20103;BMP180;10210;52.284;9.892;2023-10-09T01:58:01;100803.00;;;18.90
20103;BMP180;10210;52.284;9.892;2023-10-09T02:00:53;100792.00;;;18.80
20103;BMP180;10210;52.284;9.892;2023-10-09T02:03:25;100792.00;;;18.70
20103;BMP180;10210;52.284;9.892;2023-10-09T02:05:53;100793.00;;;18.70
20103;BMP180;10210;52.284;9.892;2023-10-09T02:08:20;100787.00;;;18.70
20103;BMP180;10210;52.284;9.892;2023-10-09T02:10:53;100786.00;;;18.60
20103;BMP180;10210;52.284;9.892;2023-10-09T02:13:30;100782.00;;;18.60
20103;BMP180;10210;52.284;9.892;2023-10-09T02:15:57;100786.00;;;18.60
20103;BMP180;10210;52.284;9.892;2023-10-09T02:18:40;100789.00;;;18.60
20103;BMP180;10210;52.284;9.892;2023-10-09T02:21:18;100761.00;;;18.60
20103;BMP180;10210;52.284;9.892;2023-10-09T02:24:01;100763.00;;;18.60
20103;BMP180;10210;52.284;9.892;2023-10-09T02:26:31;100753.00;;;18.50
20103;BMP180;10210;52.284;9.892;2023-10-09T02:29:15;100739.00;;;18.50
20103;BMP180;10210;52.284;9.892;2023-10-09T02:31:43;100724.00;;;18.50
20103;BMP180;10210;52.284;9.892;2023-10-09T02:34:17;100716.00;;;18.40
20103;BMP180;10210;52.284;9.892;2023-10-09T02:36:54;100724.00;;;18.40
20103;BMP180;10210;52.284;9.892;2023-10-09T02:39:27;100713.00;;;18.40
20103;BMP180;10210;52.284;9.892;2023-10-09T02:41:57;100713.00;;;18.40
20103;BMP180;10210;52.284;9.892;2023-10-09T02:44:28;100731.00;;;18.40
20103;BMP180;10210;52.284;9.892;2023-10-09T02:47:00;100714.00;;;18.30
20103;BMP180;10210;52.284;9.892;2023-10-09T02:49:31;100717.00;;;18.30
20103;BMP180;10210;52.284;9.892;2023-10-09T02:51:58;100719.00;;;18.30
20103;BMP180;10210;52.284;9.892;2023-10-09T02:54:26;100710.00;;;18.40
20103;BMP180;10210;52.284;9.892;2023-10-09T02:57:00;100705.00;;;18.40
20103;BMP180;10210;52.284;9.892;2023-10-09T02:59:34;100704.00;;;18.40
20103;BMP180;10210;52.284;9.892;2023-10-09T03:02:00;100699.00;;;18.40
20103;BMP180;10210;52.284;9.892;2023-10-09T03:04:27;100702.00;;;18.40
20103;BMP180;10210;52.284;9.892;2023-10-09T03:07:00;100697.00;;;18.40
20103;BMP180;10210;52.284;9.892;2023-10-09T03:09:27;100692.00;;;18.40
20103;BMP180;10210;52.284;9.892;2023-10-09T03:12:01;100696.00;;;18.40
20103;BMP180;10210;52.284;9.892;2023-10-09T03:14:37;100700.00;;;18.40
20103;BMP180;10210;52.284;9.892;2023-10-09T03:17:04;100690.00;;;18.50
20103;BMP180;10210;52.284;9.892;2023-10-09T03:19:33;100690.00;;;18.50
20103;BMP180;10210;52.284;9.892;2023-10-09T03:22:04;100669.00;;;18.50
20103;BMP180;10210;52.284;9.892;2023-10-09T03:24:31;100667.00;;;18.50
20103;BMP180;10210;52.284;9.892;2023-10-09T03:26:58;100654.00;;;18.50
20103;BMP180;10210;52.284;9.892;2023-10-09T03:29:24;100646.00;;;18.50
20103;BMP180;10210;52.284;9.892;2023-10-09T03:31:51;100644.00;;;18.50
20103;BMP180;10210;52.284;9.892;2023-10-09T03:34:17;100647.00;;;18.60
20103;BMP180;10210;52.284;9.892;2023-10-09T03:36:46;100638.00;;;18.50
20103;BMP180;10210;52.284;9.892;2023-10-09T03:39:17;100633.00;;;18.60
20103;BMP180;10210;52.284;9.892;2023-10-09T03:42:04;100633.00;;;18.60
20103;BMP180;10210;52.284;9.892;2023-10-09T03:44:34;100637.00;;;18.50
20103;BMP180;10210;52.284;9.892;2023-10-09T03:47:01;100636.00;;;18.50
20103;BMP180;10210;52.284;9.892;2023-10-09T03:49:28;100629.00;;;18.60
20103;BMP180;10210;52.284;9.892;2023-10-09T03:51:55;100627.00;;;18.60
20103;BMP180;10210;52.284;9.892;2023-10-09T03:54:21;100623.00;;;18.60
20103;BMP180;10210;52.284;9.892;2023-10-09T03:56:50;100614.00;;;18.60
20103;BMP180;10210;52.284;9.892;2023-10-09T03:59:17;100614.00;;;18.60
20103;BMP180;10210;52.284;9.892;2023-10-09T04:01:46;100613.00;;;18.60
20103;BMP180;10210;52.284;9.892;2023-10-09T04:04:14;100625.00;;;18.70
20103;BMP180;10210;52.284;9.892;2023-10-09T04:06:43;100630.00;;;18.70
20103;BMP180;10210;52.284;9.892;2023-10-09T04:09:10;100636.00;;;18.70
20103;BMP180;10210;52.284;9.892;2023-10-09T04:11:55;100642.00;;;18.70
20103;BMP180;10210;52.284;9.892;2023-10-09T04:14:42;100636.00;;;18.70
20103;BMP180;10210;52.284;9.892;2023-10-09T04:17:23;100642.00;;;18.70
20103;BMP180;10210;52.284;9.892;2023-10-09T04:19:55;100648.00;;;18.70
20103;BMP180;10210;52.284;9.892;2023-10-09T04:22:45;100646.00;;;18.70
20103;BMP180;10210;52.284;9.892;2023-10-09T04:25:26;100655.00;;;18.70
20103;BMP180;10210;52.284;9.892;2023-10-09T04:27:56;100634.00;;;18.70
20103;BMP180;10210;52.284;9.892;2023-10-09T04:30:41;100637.00;;;18.70
20103;BMP180;10210;52.284;9.892;2023-10-09T04:33:15;100631.00;;;18.80
20103;BMP180;10210;52.284;9.892;2023-10-09T04:36:10;100638.00;;;18.70
20103;BMP180;10210;52.284;9.892;2023-10-09T04:38:52;100631.00;;;18.80
20103;BMP180;10210;52.284;9.892;2023-10-09T04:41:42;100633.00;;;18.80
20103;BMP180;10210;52.284;9.892;2023-10-09T04:44:11;100641.00;;;18.70
20103;BMP180;10210;52.284;9.892;2023-10-09T04:46:44;100636.00;;;18.70
20103;BMP180;10210;52.284;9.892;2023-10-09T04:49:11;100635.00;;;18.70
20103;BMP180;10210;52.284;9.892;2023-10-09T04:51:56;100635.00;;;18.70
20103;BMP180;10210;52.284;9.892;2023-10-09T04:54:31;100617.00;;;18.70
20103;BMP180;10210;52.284;9.892;2023-10-09T04:57:25;100631.00;;;18.60
20103;BMP180;10210;52.284;9.892;2023-10-09T04:59:52;100625.00;;;18.70
20103;BMP180;10210;52.284;9.892;2023-10-09T05:02:17;100619.00;;;18.60
20103;BMP180;10210;52.284;9.892;2023-10-09T05:04:48;100621.00;;;18.70
20103;BMP180;10210;52.284;9.892;2023-10-09T05:07:27;100612.00;;;18.70
20103;BMP180;10210;52.284;9.892;2023-10-09T05:10:11;100635.00;;;18.70
20103;BMP180;10210;52.284;9.892;2023-10-09T05:12:44;100636.00;;;18.60
20103;BMP180;10210;52.284;9.892;2023-10-09T05:15:13;100648.00;;;18.70
20103;BMP180;10210;52.284;9.892;2023-10-09T05:17:40;100644.00;;;18.70
20103;BMP180;10210;52.284;9.892;2023-10-09T05:20:11;100646.00;;;18.70
20103;BMP180;10210;52.284;9.892;2023-10-09T05:22:52;100641.00;;;18.70
20103;BMP180;10210;52.284;9.892;2023-10-09T05:25:27;100639.00;;;18.60
20103;BMP180;10210;52.284;9.892;2023-10-09T05:28:11;100671.00;;;18.60
20103;BMP180;10210;52.284;9.892;2023-10-09T05:30:58;100678.00;;;18.60
20103;BMP180;10210;52.284;9.892;2023-10-09T05:33:37;100666.00;;;18.60
20103;BMP180;10210;52.284;9.892;2023-10-09T05:36:05;100664.00;;;18.60
20103;BMP180;10210;52.284;9.892;2023-10-09T05:38:47;100671.00;;;18.60
20103;BMP180;10210;52.284;9.892;2023-10-09T05:41:25;100665.00;;;18.60
20103;BMP180;10210;52.284;9.892;2023-10-09T05:44:10;100659.00;;;18.60
20103;BMP180;10210;52.284;9.892;2023-10-09T05:47:01;100652.00;;;18.60
20103;BMP180;10210;52.284;9.892;2023-10-09T05:49:46;100653.00;;;18.60
20103;BMP180;10210;52.284;9.892;2023-10-09T05:52:13;100644.00;;;18.60
20103;BMP180;10210;52.284;9.892;2023-10-09T05:55:08;100642.00;;;18.60
20103;BMP180;10210;52.284;9.892;2023-10-09T05:58:05;100641.00;;;18.60
20103;BMP180;10210;52.284;9.892;2023-10-09T06:00:34;100652.00;;;18.60
20103;BMP180;10210;52.284;9.892;2023-10-09T06:03:19;100673.00;;;18.70
20103;BMP180;10210;52.284;9.892;2023-10-09T06:05:51;100694.00;;;18.70
20103;BMP180;10210;52.284;9.892;2023-10-09T06:08:32;100688.00;;;18.70
20103;BMP180;10210;52.284;9.892;2023-10-09T06:11:11;100724.00;;;18.60
20103;BMP180;10210;52.284;9.892;2023-10-09T06:14:01;100695.00;;;18.60
20103;BMP180;10210;52.284;9.892;2023-10-09T06:16:41;100681.00;;;18.50
20103;BMP180;10210;52.284;9.892;2023-10-09T06:19:12;100684.00;;;18.50
20103;BMP180;10210;52.284;9.892;2023-10-09T06:21:51;100696.00;;;18.50
20103;BMP180;10210;52.284;9.892;2023-10-09T06:24:22;100695.00;;;18.50
20103;BMP180;10210;52.284;9.892;2023-10-09T06:27:09;100672.00;;;18.50
20103;BMP180;10210;52.284;9.892;2023-10-09T06:29:42;100693.00;;;18.50
20103;BMP180;10210;52.284;9.892;2023-10-09T06:32:19;100679.00;;;18.50
20103;BMP180;10210;52.284;9.892;2023-10-09T06:34:51;100684.00;;;18.50
20103;BMP180;10210;52.284;9.892;2023-10-09T06:37:22;100688.00;;;18.60
20103;BMP180;10210;52.284;9.892;2023-10-09T06:39:52;100677.00;;;18.60
20103;BMP180;10210;52.284;9.892;2023-10-09T06:42:29;100682.00;;;18.60
20103;BMP180;10210;52.284;9.892;2023-10-09T06:45:10;100685.00;;;18.60
20103;BMP180;10210;52.284;9.892;2023-10-09T06:47:50;100687.00;;;18.60
20103;BMP180;10210;52.284;9.892;2023-10-09T06:50:35;100690.00;;;18.70
20103;BMP180;10210;52.284;9.892;2023-10-09T06:53:20;100696.00;;;18.70
20103;BMP180;10210;52.284;9.892;2023-10-09T06:55:51;100688.00;;;18.70
20103;BMP180;10210;52.284;9.892;2023-10-09T06:58:18;100697.00;;;18.70
20103;BMP180;10210;52.284;9.892;2023-10-09T07:00:56;100701.00;;;18.70
20103;BMP180;10210;52.284;9.892;2023-10-09T07:03:28;100693.00;;;18.80
20103;BMP180;10210;52.284;9.892;2023-10-09T07:06:10;100692.00;;;18.80
20103;BMP180;10210;52.284;9.892;2023-10-09T07:08:56;100686.00;;;18.80
20103;BMP180;10210;52.284;9.892;2023-10-09T07:11:43;100688.00;;;18.80
20103;BMP180;10210;52.284;9.892;2023-10-09T07:17:05;100700.00;;;18.80
20103;BMP180;10210;52.284;9.892;2023-10-09T07:19:52;100684.00;;;18.80
20103;BMP180;10210;52.284;9.892;2023-10-09T07:22:22;100690.00;;;18.90
20103;BMP180;10210;52.284;9.892;2023-10-09T07:24:53;100678.00;;;18.90
20103;BMP180;10210;52.284;9.892;2023-10-09T07:27:29;100683.00;;;18.90
20103;BMP180;10210;52.284;9.892;2023-10-09T07:30:16;100673.00;;;18.90
20103;BMP180;10210;52.284;9.892;2023-10-09T07:33:07;100671.00;;;18.90
20103;BMP180;10210;52.284;9.892;2023-10-09T07:35:37;100673.00;;;18.90
20103;BMP180;10210;52.284;9.892;2023-10-09T07:38:22;100666.00;;;18.80
20103;BMP180;10210;52.284;9.892;2023-10-09T07:40:51;100659.00;;;18.80
20103;BMP180;10210;52.284;9.892;2023-10-09T07:43:34;100660.00;;;18.80
20103;BMP180;10210;52.284;9.892;2023-10-09T07:46:17;100658.00;;;18.80
20103;BMP180;10210;52.284;9.892;2023-10-09T07:49:04;100667.00;;;18.80
20103;BMP180;10210;52.284;9.892;2023-10-09T07:51:41;100658.00;;;18.80
20103;BMP180;10210;52.284;9.892;2023-10-09T07:54:11;100655.00;;;18.80
20103;BMP180;10210;52.284;9.892;2023-10-09T07:56:43;100655.00;;;18.90
20103;BMP180;10210;52.284;9.892;2023-10-09T07:59:15;100657.00;;;18.90
20103;BMP180;10210;52.284;9.892;2023-10-09T08:01:50;100651.00;;;18.90
20103;BMP180;10210;52.284;9.892;2023-10-09T08:04:41;100639.00;;;18.90
20103;BMP180;10210;52.284;9.892;2023-10-09T08:07:19;100636.00;;;18.90
20103;BMP180;10210;52.284;9.892;2023-10-09T08:09:46;100645.00;;;18.90
20103;BMP180;10210;52.284;9.892;2023-10-09T08:12:35;100633.00;;;18.90
20103;BMP180;10210;52.284;9.892;2023-10-09T08:15:18;100630.00;;;18.90
20103;BMP180;10210;52.284;9.892;2023-10-09T08:17:56;100618.00;;;18.90
20103;BMP180;10210;52.284;9.892;2023-10-09T08:20:30;100626.00;;;18.90
20103;BMP180;10210;52.284;9.892;2023-10-09T08:23:16;100623.00;;;18.90
20103;BMP180;10210;52.284;9.892;2023-10-09T08:26:03;100621.00;;;18.90
20103;BMP180;10210;52.284;9.892;2023-10-09T08:28:43;100616.00;;;18.90
20103;BMP180;10210;52.284;9.892;2023-10-09T08:31:17;100621.00;;;19.00
20103;BMP180;10210;52.284;9.892;2023-10-09T08:34:08;100620.00;;;19.00
20103;BMP180;10210;52.284;9.892;2023-10-09T08:36:51;100614.00;;;19.00
20103;BMP180;10210;52.284;9.892;2023-10-09T08:39:24;100617.00;;;19.00
20103;BMP180;10210;52.284;9.892;2023-10-09T08:41:55;100613.00;;;19.00
20103;BMP180;10210;52.284;9.892;2023-10-09T08:44:28;100608.00;;;19.10
20103;BMP180;10210;52.284;9.892;2023-10-09T08:46:59;100604.00;;;19.10
20103;BMP180;10210;52.284;9.892;2023-10-09T08:49:27;100602.00;;;19.20
20103;BMP180;10210;52.284;9.892;2023-10-09T08:51:56;100612.00;;;19.20
20103;BMP180;10210;52.284;9.892;2023-10-09T08:54:22;100613.00;;;19.20
20103;BMP180;10210;52.284;9.892;2023-10-09T08:56:48;100619.00;;;19.30
20103;BMP180;10210;52.284;9.892;2023-10-09T08:59:21;100615.00;;;19.30
20103;BMP180;10210;52.284;9.892;2023-10-09T09:01:48;100613.00;;;19.30
20103;BMP180;10210;52.284;9.892;2023-10-09T09:04:38;100619.00;;;19.40
20103;BMP180;10210;52.284;9.892;2023-10-09T09:07:24;100622.00;;;19.40
20103;BMP180;10210;52.284;9.892;2023-10-09T09:09:59;100620.00;;;19.40
20103;BMP180;10210;52.284;9.892;2023-10-09T09:12:44;100624.00;;;19.50
20103;BMP180;10210;52.284;9.892;2023-10-09T09:15:17;100625.00;;;19.50
20103;BMP180;10210;52.284;9.892;2023-10-09T09:17:50;100625.00;;;19.50
20103;BMP180;10210;52.284;9.892;2023-10-09T09:20:25;100626.00;;;19.50
20103;BMP180;10210;52.284;9.892;2023-10-09T09:23:13;100630.00;;;19.50
20103;BMP180;10210;52.284;9.892;2023-10-09T09:25:47;100621.00;;;19.50
20103;BMP180;10210;52.284;9.892;2023-10-09T09:28:26;100622.00;;;19.50
20103;BMP180;10210;52.284;9.892;2023-10-09T09:31:08;100624.00;;;19.60
20103;BMP180;10210;52.284;9.892;2023-10-09T09:33:39;100623.00;;;19.60
20103;BMP180;10210;52.284;9.892;2023-10-09T09:36:13;100615.00;;;19.60
20103;BMP180;10210;52.284;9.892;2023-10-09T09:38:39;100621.00;;;19.60
20103;BMP180;10210;52.284;9.892;2023-10-09T09:41:14;100618.00;;;19.70
20103;BMP180;10210;52.284;9.892;2023-10-09T09:44:01;100626.00;;;19.70
20103;BMP180;10210;52.284;9.892;2023-10-09T09:46:32;100646.00;;;19.70
20103;BMP180;10210;52.284;9.892;2023-10-09T09:49:02;100675.00;;;19.70
20103;BMP180;10210;52.284;9.892;2023-10-09T09:51:32;100702.00;;;19.70
20103;BMP180;10210;52.284;9.892;2023-10-09T09:53:58;100696.00;;;19.60
20103;BMP180;10210;52.284;9.892;2023-10-09T09:56:26;100671.00;;;19.60
20103;BMP180;10210;52.284;9.892;2023-10-09T09:58:57;100673.00;;;19.60
20103;BMP180;10210;52.284;9.892;2023-10-09T10:01:30;100673.00;;;19.50
20103;BMP180;10210;52.284;9.892;2023-10-09T10:04:18;100665.00;;;19.40
20103;BMP180;10210;52.284;9.892;2023-10-09T10:06:48;100681.00;;;19.40
20103;BMP180;10210;52.284;9.892;2023-10-09T10:09:41;100667.00;;;19.30
20103;BMP180;10210;52.284;9.892;2023-10-09T10:12:11;100671.00;;;19.30
20103;BMP180;10210;52.284;9.892;2023-10-09T10:14:56;100672.00;;;19.30
20103;BMP180;10210;52.284;9.892;2023-10-09T10:17:27;100675.00;;;19.30
20103;BMP180;10210;52.284;9.892;2023-10-09T10:22:29;100678.00;;;19.40
20103;BMP180;10210;52.284;9.892;2023-10-09T10:24:57;100668.00;;;19.40
20103;BMP180;10210;52.284;9.892;2023-10-09T10:27:26;100668.00;;;19.40
20103;BMP180;10210;52.284;9.892;2023-10-09T10:30:28;100669.00;;;19.40
20103;BMP180;10210;52.284;9.892;2023-10-09T10:33:00;100674.00;;;19.50
20103;BMP180;10210;52.284;9.892;2023-10-09T10:35:36;100678.00;;;19.50
20103;BMP180;10210;52.284;9.892;2023-10-09T10:38:31;100663.00;;;19.40
20103;BMP180;10210;52.284;9.892;2023-10-09T10:41:18;100656.00;;;19.50
20103;BMP180;10210;52.284;9.892;2023-10-09T10:43:48;100660.00;;;19.50
20103;BMP180;10210;52.284;9.892;2023-10-09T10:46:18;100659.00;;;19.50
20103;BMP180;10210;52.284;9.892;2023-10-09T10:48:50;100655.00;;;19.50
20103;BMP180;10210;52.284;9.892;2023-10-09T10:51:26;100661.00;;;19.50
20103;BMP180;10210;52.284;9.892;2023-10-09T10:54:04;100657.00;;;19.50
20103;BMP180;10210;52.284;9.892;2023-10-09T10:56:50;100657.00;;;19.40
20103;BMP180;10210;52.284;9.892;2023-10-09T10:59:20;100647.00;;;19.40
20103;BMP180;10210;52.284;9.892;2023-10-09T11:01:52;100657.00;;;19.40
20103;BMP180;10210;52.284;9.892;2023-10-09T11:04:28;100648.00;;;19.40
20103;BMP180;10210;52.284;9.892;2023-10-09T11:07:11;100642.00;;;19.40
20103;BMP180;10210;52.284;9.892;2023-10-09T11:09:52;100637.00;;;19.40
20103;BMP180;10210;52.284;9.892;2023-10-09T11:12:41;100644.00;;;19.30
20103;BMP180;10210;52.284;9.892;2023-10-09T11:15:37;100642.00;;;19.30
20103;BMP180;10210;52.284;9.892;2023-10-09T11:18:14;100638.00;;;19.40
20103;BMP180;10210;52.284;9.892;2023-10-09T11:20:53;100642.00;;;19.50
20103;BMP180;10210;52.284;9.892;2023-10-09T11:23:43;100647.00;;;19.50
20103;BMP180;10210;52.284;9.892;2023-10-09T11:26:25;100645.00;;;19.50
20103;BMP180;10210;52.284;9.892;2023-10-09T11:29:13;100644.00;;;19.50
20103;BMP180;10210;52.284;9.892;2023-10-09T11:32:07;100641.00;;;19.50
20103;BMP180;10210;52.284;9.892;2023-10-09T11:34:40;100655.00;;;19.60
20103;BMP180;10210;52.284;9.892;2023-10-09T11:37:15;100650.00;;;19.60
20103;BMP180;10210;52.284;9.892;2023-10-09T11:39:43;100654.00;;;19.60
20103;BMP180;10210;52.284;9.892;2023-10-09T11:42:19;100652.00;;;19.70
20103;BMP180;10210;52.284;9.892;2023-10-09T11:45:05;100643.00;;;19.70
20103;BMP180;10210;52.284;9.892;2023-10-09T11:47:51;100651.00;;;19.70
20103;BMP180;10210;52.284;9.892;2023-10-09T11:53:19;100653.00;;;19.70
20103;BMP180;10210;52.284;9.892;2023-10-09T11:55:49;100648.00;;;19.70
20103;BMP180;10210;52.284;9.892;2023-10-09T11:58:19;100655.00;;;19.70
20103;BMP180;10210;52.284;9.892;2023-10-09T12:00:56;100656.00;;;19.70
20103;BMP180;10210;52.284;9.892;2023-10-09T12:03:28;100651.00;;;19.70
20103;BMP180;10210;52.284;9.892;2023-10-09T12:06:03;100651.00;;;19.80
20103;BMP180;10210;52.284;9.892;2023-10-09T12:08:38;100672.00;;;19.80
20103;BMP180;10210;52.284;9.892;2023-10-09T12:11:07;100657.00;;;19.80
20103;BMP180;10210;52.284;9.892;2023-10-09T12:13:38;100665.00;;;19.80
20103;BMP180;10210;52.284;9.892;2023-10-09T12:16:05;100656.00;;;19.80
20103;BMP180;10210;52.284;9.892;2023-10-09T12:18:37;100666.00;;;19.80
20103;BMP180;10210;52.284;9.892;2023-10-09T12:21:06;100657.00;;;19.80
20103;BMP180;10210;52.284;9.892;2023-10-09T12:23:32;100655.00;;;19.90
20103;BMP180;10210;52.284;9.892;2023-10-09T12:26:10;100658.00;;;19.90
20103;BMP180;10210;52.284;9.892;2023-10-09T12:28:45;100656.00;;;19.90
20103;BMP180;10210;52.284;9.892;2023-10-09T12:31:15;100656.00;;;19.90
20103;BMP180;10210;52.284;9.892;2023-10-09T12:33:41;100657.00;;;19.90
20103;BMP180;10210;52.284;9.892;2023-10-09T12:36:12;100654.00;;;19.90
20103;BMP180;10210;52.284;9.892;2023-10-09T12:38:46;100655.00;;;19.90
20103;BMP180;10210;52.284;9.892;2023-10-09T12:41:18;100667.00;;;19.90
20103;BMP180;10210;52.284;9.892;2023-10-09T12:43:51;100660.00;;;20.00
20103;BMP180;10210;52.284;9.892;2023-10-09T12:46:18;100665.00;;;20.00
20103;BMP180;10210;52.284;9.892;2023-10-09T12:48:54;100668.00;;;20.00
20103;BMP180;10210;52.284;9.892;2023-10-09T12:51:22;100664.00;;;20.00
20103;BMP180;10210;52.284;9.892;2023-10-09T12:53:53;100671.00;;;20.00
20103;BMP180;10210;52.284;9.892;2023-10-09T12:56:32;100669.00;;;20.00
20103;BMP180;10210;52.284;9.892;2023-10-09T12:59:02;100664.00;;;20.00
20103;BMP180;10210;52.284;9.892;2023-10-09T13:01:31;100666.00;;;20.00
20103;BMP180;10210;52.284;9.892;2023-10-09T13:04:12;100664.00;;;20.00
20103;BMP180;10210;52.284;9.892;2023-10-09T13:06:41;100654.00;;;20.00
20103;BMP180;10210;52.284;9.892;2023-10-09T13:09:17;100649.00;;;20.00
20103;BMP180;10210;52.284;9.892;2023-10-09T13:12:09;100654.00;;;20.00
20103;BMP180;10210;52.284;9.892;2023-10-09T13:14:37;100651.00;;;20.00
20103;BMP180;10210;52.284;9.892;2023-10-09T13:17:03;100655.00;;;20.00
20103;BMP180;10210;52.284;9.892;2023-10-09T13:19:36;100645.00;;;20.10
20103;BMP180;10210;52.284;9.892;2023-10-09T13:22:02;100657.00;;;20.10
20103;BMP180;10210;52.284;9.892;2023-10-09T13:24:29;100664.00;;;20.10
20103;BMP180;10210;52.284;9.892;2023-10-09T13:26:58;100659.00;;;20.10
20103;BMP180;10210;52.284;9.892;2023-10-09T13:29:26;100666.00;;;20.10
20103;BMP180;10210;52.284;9.892;2023-10-09T13:31:53;100662.00;;;20.20
20103;BMP180;10210;52.284;9.892;2023-10-09T13:34:23;100658.00;;;20.20
20103;BMP180;10210;52.284;9.892;2023-10-09T13:36:54;100670.00;;;20.20
20103;BMP180;10210;52.284;9.892;2023-10-09T13:39:23;100666.00;;;20.20
20103;BMP180;10210;52.284;9.892;2023-10-09T13:41:58;100664.00;;;20.20
20103;BMP180;10210;52.284;9.892;2023-10-09T13:44:29;100658.00;;;20.20
20103;BMP180;10210;52.284;9.892;2023-10-09T13:47:02;100661.00;;;20.30
20103;BMP180;10210;52.284;9.892;2023-10-09T13:49:33;100656.00;;;20.30
20103;BMP180;10210;52.284;9.892;2023-10-09T13:52:02;100652.00;;;20.30
20103;BMP180;10210;52.284;9.892;2023-10-09T13:54:28;100657.00;;;20.30
20103;BMP180;10210;52.284;9.892;2023-10-09T13:57:05;100653.00;;;20.30
20103;BMP180;10210;52.284;9.892;2023-10-09T13:59:33;100652.00;;;20.40
20103;BMP180;10210;52.284;9.892;2023-10-09T14:02:00;100662.00;;;20.40
20103;BMP180;10210;52.284;9.892;2023-10-09T14:04:29;100655.00;;;20.40
20103;BMP180;10210;52.284;9.892;2023-10-09T14:06:56;100653.00;;;20.50
20103;BMP180;10210;52.284;9.892;2023-10-09T14:09:27;100655.00;;;20.50
20103;BMP180;10210;52.284;9.892;2023-10-09T14:12:00;100649.00;;;20.50
20103;BMP180;10210;52.284;9.892;2023-10-09T14:14:38;100651.00;;;20.50
20103;BMP180;10210;52.284;9.892;2023-10-09T14:17:10;100650.00;;;20.50
20103;BMP180;10210;52.284;9.892;2023-10-09T14:19:43;100648.00;;;20.50
20103;BMP180;10210;52.284;9.892;2023-10-09T14:22:23;100645.00;;;20.50
20103;BMP180;10210;52.284;9.892;2023-10-09T14:24:54;100647.00;;;20.50
20103;BMP180;10210;52.284;9.892;2023-10-09T14:27:26;100663.00;;;20.50
20103;BMP180;10210;52.284;9.892;2023-10-09T14:29:55;100651.00;;;20.50
20103;BMP180;10210;52.284;9.892;2023-10-09T14:32:23;100654.00;;;20.50
20103;BMP180;10210;52.284;9.892;2023-10-09T14:34:55;100648.00;;;20.50
20103;BMP180;10210;52.284;9.892;2023-10-09T14:37:29;100648.00;;;20.50
20103;BMP180;10210;52.284;9.892;2023-10-09T14:39:57;100646.00;;;20.50
20103;BMP180;10210;52.284;9.892;2023-10-09T14:42:24;100647.00;;;20.60
20103;BMP180;10210;52.284;9.892;2023-10-09T14:44:53;100639.00;;;20.60
20103;BMP180;10210;52.284;9.892;2023-10-09T14:47:20;100650.00;;;20.60
20103;BMP180;10210;52.284;9.892;2023-10-09T14:49:49;100643.00;;;20.60